sensor_id;sensor_type;location;lat;lon;timestamp;P1;durP1;ratioP1;P2;durP2;ratioP2
35245;SDS011;21379;50.962;6.960;2023-10-13T00:00:33;13.35;;;8.85;;
35245;SDS011;21379;50.962;6.960;2023-10-13T00:03:01;15.70;;;9.32;;
35245;SDS011;21379;50.962;6.960;2023-10-13T00:05:28;15.25;;;8.20;;
35245;SDS011;21379;50.962;6.960;2023-10-13T00:10:27;14.85;;;8.30;;
35245;SDS011;21379;50.962;6.960;2023-10-13T00:12:54;13.32;;;8.10;;
35245;SDS011;21379;50.962;6.960;2023-10-13T00:15:32;16.23;;;8.70;;
35245;SDS011;21379;50.962;6.960;2023-10-13T00:18:04;14.98;;;8.77;;
35245;SDS011;21379;50.962;6.960;2023-10-13T00:20:37;14.52;;;9.00;;
35245;SDS011;21379;50.962;6.960;2023-10-13T00:23:05;13.05;;;8.65;;
35245;SDS011;21379;50.962;6.960;2023-10-13T00:25:33;14.93;;;8.65;;
35245;SDS011;21379;50.962;6.960;2023-10-13T00:28:08;13.38;;;8.55;;
35245;SDS011;21379;50.962;6.960;2023-10-13T00:30:35;13.75;;;8.43;;
35245;SDS011;21379;50.962;6.960;2023-10-13T00:33:03;12.27;;;8.10;;
35245;SDS011;21379;50.962;6.960;2023-10-13T00:35:30;12.80;;;8.38;;
35245;SDS011;21379;50.962;6.960;2023-10-13T00:38:02;15.55;;;9.38;;
35245;SDS011;21379;50.962;6.960;2023-10-13T00:40:39;13.63;;;8.40;;
35245;SDS011;21379;50.962;6.960;2023-10-13T00:43:16;16.70;;;9.75;;
35245;SDS011;21379;50.962;6.960;2023-10-13T00:45:58;14.70;;;9.50;;
35245;SDS011;21379;50.962;6.960;2023-10-13T00:48:33;12.93;;;8.77;;
35245;SDS011;21379;50.962;6.960;2023-10-13T00:51:00;15.38;;;9.25;;
35245;SDS011;21379;50.962;6.960;2023-10-13T00:53:32;16.35;;;9.57;;
35245;SDS011;21379;50.962;6.960;2023-10-13T00:56:00;15.15;;;9.25;;
35245;SDS011;21379;50.962;6.960;2023-10-13T00:58:32;12.23;;;8.70;;
35245;SDS011;21379;50.962;6.960;2023-10-13T01:00:59;15.88;;;8.43;;
35245;SDS011;21379;50.962;6.960;2023-10-13T01:03:43;13.55;;;8.82;;
35245;SDS011;21379;50.962;6.960;2023-10-13T01:06:10;13.32;;;8.60;;
35245;SDS011;21379;50.962;6.960;2023-10-13T01:08:37;16.90;;;9.55;;
35245;SDS011;21379;50.962;6.960;2023-10-13T01:11:05;14.52;;;9.20;;
35245;SDS011;21379;50.962;6.960;2023-10-13T01:13:33;16.75;;;9.23;;
35245;SDS011;21379;50.962;6.960;2023-10-13T01:16:01;15.35;;;8.63;;
35245;SDS011;21379;50.962;6.960;2023-10-13T01:18:32;14.15;;;9.30;;
35245;SDS011;21379;50.962;6.960;2023-10-13T01:21:05;13.90;;;9.45;;
35245;SDS011;21379;50.962;6.960;2023-10-13T01:23:34;15.63;;;9.32;;
35245;SDS011;21379;50.962;6.960;2023-10-13T01:26:03;16.98;;;8.88;;
35245;SDS011;21379;50.962;6.960;2023-10-13T01:28:31;14.35;;;8.65;;
35245;SDS011;21379;50.962;6.960;2023-10-13T01:31:09;12.30;;;9.05;;
35245;SDS011;21379;50.962;6.960;2023-10-13T01:33:38;15.52;;;9.05;;
35245;SDS011;21379;50.962;6.960;2023-10-13T01:36:04;13.35;;;8.75;;
35245;SDS011;21379;50.962;6.960;2023-10-13T01:38:36;17.17;;;8.35;;
35245;SDS011;21379;50.962;6.960;2023-10-13T01:41:04;16.20;;;9.43;;
35245;SDS011;21379;50.962;6.960;2023-10-13T01:43:34;14.93;;;9.63;;
35245;SDS011;21379;50.962;6.960;2023-10-13T01:46:00;15.60;;;9.18;;
35245;SDS011;21379;50.962;6.960;2023-10-13T01:48:28;14.25;;;9.65;;
35245;SDS011;21379;50.962;6.960;2023-10-13T01:50:57;18.77;;;10.02;;
35245;SDS011;21379;50.962;6.960;2023-10-13T01:53:25;18.80;;;10.50;;
35245;SDS011;21379;50.962;6.960;2023-10-13T01:55:55;13.05;;;9.80;;
35245;SDS011;21379;50.962;6.960;2023-10-13T01:58:23;13.43;;;9.25;;
35245;SDS011;21379;50.962;6.960;2023-10-13T02:00:51;12.82;;;9.63;;
35245;SDS011;21379;50.962;6.960;2023-10-13T02:03:18;15.45;;;9.07;;
35245;SDS011;21379;50.962;6.960;2023-10-13T02:05:44;21.98;;;10.20;;
35245;SDS011;21379;50.962;6.960;2023-10-13T02:08:13;16.38;;;10.48;;
35245;SDS011;21379;50.962;6.960;2023-10-13T02:10:47;14.73;;;9.35;;
35245;SDS011;21379;50.962;6.960;2023-10-13T02:13:16;14.45;;;9.75;;
35245;SDS011;21379;50.962;6.960;2023-10-13T02:15:43;15.00;;;9.35;;
35245;SDS011;21379;50.962;6.960;2023-10-13T02:20:38;14.60;;;9.95;;
35245;SDS011;21379;50.962;6.960;2023-10-13T02:23:08;14.80;;;9.50;;
35245;SDS011;21379;50.962;6.960;2023-10-13T02:25:36;15.15;;;9.80;;
35245;SDS011;21379;50.962;6.960;2023-10-13T02:28:08;18.20;;;10.23;;
35245;SDS011;21379;50.962;6.960;2023-10-13T02:30:38;15.30;;;10.20;;
35245;SDS011;21379;50.962;6.960;2023-10-13T02:33:05;19.33;;;10.60;;
35245;SDS011;21379;50.962;6.960;2023-10-13T02:35:31;19.20;;;11.10;;
35245;SDS011;21379;50.962;6.960;2023-10-13T02:38:11;26.13;;;11.07;;
35245;SDS011;21379;50.962;6.960;2023-10-13T02:40:38;18.40;;;10.77;;
35245;SDS011;21379;50.962;6.960;2023-10-13T02:43:04;20.58;;;10.43;;
35245;SDS011;21379;50.962;6.960;2023-10-13T02:45:31;19.00;;;11.13;;
35245;SDS011;21379;50.962;6.960;2023-10-13T02:48:03;18.67;;;9.93;;
35245;SDS011;21379;50.962;6.960;2023-10-13T02:50:39;16.83;;;10.10;;
35245;SDS011;21379;50.962;6.960;2023-10-13T02:53:08;19.75;;;11.13;;
35245;SDS011;21379;50.962;6.960;2023-10-13T02:55:38;22.48;;;10.75;;
35245;SDS011;21379;50.962;6.960;2023-10-13T02:58:04;17.50;;;11.20;;
35245;SDS011;21379;50.962;6.960;2023-10-13T03:00:34;16.17;;;10.80;;
35245;SDS011;21379;50.962;6.960;2023-10-13T03:03:07;17.65;;;11.10;;
35245;SDS011;21379;50.962;6.960;2023-10-13T03:05:34;14.07;;;9.73;;
35245;SDS011;21379;50.962;6.960;2023-10-13T03:08:04;19.60;;;10.20;;
35245;SDS011;21379;50.962;6.960;2023-10-13T03:10:30;17.85;;;10.05;;
35245;SDS011;21379;50.962;6.960;2023-10-13T03:12:58;19.60;;;11.55;;
35245;SDS011;21379;50.962;6.960;2023-10-13T03:15:24;18.55;;;11.50;;
35245;SDS011;21379;50.962;6.960;2023-10-13T03:17:55;22.30;;;11.65;;
35245;SDS011;21379;50.962;6.960;2023-10-13T03:20:25;20.98;;;11.43;;
35245;SDS011;21379;50.962;6.960;2023-10-13T03:22:56;21.83;;;11.57;;
35245;SDS011;21379;50.962;6.960;2023-10-13T03:25:22;18.40;;;11.77;;
35245;SDS011;21379;50.962;6.960;2023-10-13T03:27:54;19.77;;;12.20;;
35245;SDS011;21379;50.962;6.960;2023-10-13T03:30:36;25.85;;;11.32;;
35245;SDS011;21379;50.962;6.960;2023-10-13T03:33:03;17.33;;;11.18;;
35245;SDS011;21379;50.962;6.960;2023-10-13T03:35:35;20.88;;;12.20;;
35245;SDS011;21379;50.962;6.960;2023-10-13T03:38:06;18.42;;;11.45;;
35245;SDS011;21379;50.962;6.960;2023-10-13T03:40:44;16.52;;;10.75;;
35245;SDS011;21379;50.962;6.960;2023-10-13T03:43:32;18.00;;;11.43;;
35245;SDS011;21379;50.962;6.960;2023-10-13T03:46:10;18.55;;;11.68;;
35245;SDS011;21379;50.962;6.960;2023-10-13T03:48:36;28.35;;;11.98;;
35245;SDS011;21379;50.962;6.960;2023-10-13T03:51:18;20.63;;;11.52;;
35245;SDS011;21379;50.962;6.960;2023-10-13T03:53:45;20.00;;;11.48;;
35245;SDS011;21379;50.962;6.960;2023-10-13T03:56:22;19.45;;;11.98;;
35245;SDS011;21379;50.962;6.960;2023-10-13T03:58:53;23.25;;;11.60;;
35245;SDS011;21379;50.962;6.960;2023-10-13T04:01:23;21.13;;;12.00;;
35245;SDS011;21379;50.962;6.960;2023-10-13T04:03:57;17.90;;;11.00;;
35245;SDS011;21379;50.962;6.960;2023-10-13T04:06:30;19.27;;;11.57;;
35245;SDS011;21379;50.962;6.960;2023-10-13T04:09:13;16.55;;;11.15;;
35245;SDS011;21379;50.962;6.960;2023-10-13T04:11:57;22.85;;;11.23;;
35245;SDS011;21379;50.962;6.960;2023-10-13T04:14:43;20.80;;;10.80;;
35245;SDS011;21379;50.962;6.960;2023-10-13T04:17:40;20.05;;;10.90;;
35245;SDS011;21379;50.962;6.960;2023-10-13T04:20:10;19.73;;;11.75;;
35245;SDS011;21379;50.962;6.960;2023-10-13T04:22:53;16.48;;;11.60;;
35245;SDS011;21379;50.962;6.960;2023-10-13T04:25:39;23.02;;;11.15;;
35245;SDS011;21379;50.962;6.960;2023-10-13T04:28:30;23.00;;;13.20;;
35245;SDS011;21379;50.962;6.960;2023-10-13T04:31:16;21.55;;;11.00;;
35245;SDS011;21379;50.962;6.960;2023-10-13T04:33:57;17.60;;;10.88;;
35245;SDS011;21379;50.962;6.960;2023-10-13T04:36:27;15.68;;;10.50;;
35245;SDS011;21379;50.962;6.960;2023-10-13T04:39:12;22.60;;;10.98;;
35245;SDS011;21379;50.962;6.960;2023-10-13T04:41:54;19.88;;;11.80;;
35245;SDS011;21379;50.962;6.960;2023-10-13T04:44:23;19.15;;;11.63;;
35245;SDS011;21379;50.962;6.960;2023-10-13T04:47:04;18.10;;;11.43;;
35245;SDS011;21379;50.962;6.960;2023-10-13T04:49:40;18.65;;;11.30;;
35245;SDS011;21379;50.962;6.960;2023-10-13T04:52:32;19.00;;;12.52;;
35245;SDS011;21379;50.962;6.960;2023-10-13T04:55:27;19.60;;;10.93;;
35245;SDS011;21379;50.962;6.960;2023-10-13T04:58:13;18.42;;;11.95;;
35245;SDS011;21379;50.962;6.960;2023-10-13T05:01:01;23.77;;;11.93;;
35245;SDS011;21379;50.962;6.960;2023-10-13T05:04:09;19.17;;;11.10;;
35245;SDS011;21379;50.962;6.960;2023-10-13T05:06:55;19.52;;;11.73;;
35245;SDS011;21379;50.962;6.960;2023-10-13T05:09:39;18.77;;;11.10;;
35245;SDS011;21379;50.962;6.960;2023-10-13T05:12:25;21.17;;;11.93;;
35245;SDS011;21379;50.962;6.960;2023-10-13T05:15:09;19.60;;;11.38;;
35245;SDS011;21379;50.962;6.960;2023-10-13T05:17:53;17.33;;;11.25;;
35245;SDS011;21379;50.962;6.960;2023-10-13T05:20:37;19.55;;;11.02;;
35245;SDS011;21379;50.962;6.960;2023-10-13T05:23:21;15.98;;;10.02;;
35245;SDS011;21379;50.962;6.960;2023-10-13T05:26:07;16.48;;;10.52;;
35245;SDS011;21379;50.962;6.960;2023-10-13T05:28:53;14.77;;;9.70;;
35245;SDS011;21379;50.962;6.960;2023-10-13T05:31:37;18.38;;;10.40;;
35245;SDS011;21379;50.962;6.960;2023-10-13T05:34:21;25.20;;;11.05;;
35245;SDS011;21379;50.962;6.960;2023-10-13T05:37:05;15.93;;;10.65;;
35245;SDS011;21379;50.962;6.960;2023-10-13T05:39:49;14.90;;;9.73;;
35245;SDS011;21379;50.962;6.960;2023-10-13T05:42:33;18.48;;;9.75;;
35245;SDS011;21379;50.962;6.960;2023-10-13T05:45:19;18.08;;;9.63;;
35245;SDS011;21379;50.962;6.960;2023-10-13T05:48:19;16.42;;;9.60;;
35245;SDS011;21379;50.962;6.960;2023-10-13T05:50:59;17.67;;;10.05;;
35245;SDS011;21379;50.962;6.960;2023-10-13T05:53:40;18.77;;;10.20;;
35245;SDS011;21379;50.962;6.960;2023-10-13T05:56:24;17.52;;;9.68;;
35245;SDS011;21379;50.962;6.960;2023-10-13T05:59:08;20.20;;;9.88;;
35245;SDS011;21379;50.962;6.960;2023-10-13T06:01:54;15.88;;;9.68;;
35245;SDS011;21379;50.962;6.960;2023-10-13T06:04:38;16.75;;;9.63;;
35245;SDS011;21379;50.962;6.960;2023-10-13T06:07:22;16.52;;;9.23;;
35245;SDS011;21379;50.962;6.960;2023-10-13T06:10:06;17.60;;;9.45;;
35245;SDS011;21379;50.962;6.960;2023-10-13T06:12:50;16.77;;;10.27;;
35245;SDS011;21379;50.962;6.960;2023-10-13T06:15:35;15.10;;;9.30;;
35245;SDS011;21379;50.962;6.960;2023-10-13T06:18:21;14.60;;;9.63;;
35245;SDS011;21379;50.962;6.960;2023-10-13T06:21:05;20.08;;;9.15;;
35245;SDS011;21379;50.962;6.960;2023-10-13T06:23:49;14.02;;;9.25;;
35245;SDS011;21379;50.962;6.960;2023-10-13T06:26:33;14.68;;;9.48;;
35245;SDS011;21379;50.962;6.960;2023-10-13T06:29:17;20.80;;;10.63;;
35245;SDS011;21379;50.962;6.960;2023-10-13T06:31:45;15.30;;;9.15;;
35245;SDS011;21379;50.962;6.960;2023-10-13T06:34:14;15.32;;;8.65;;
35245;SDS011;21379;50.962;6.960;2023-10-13T06:36:41;20.63;;;9.02;;
35245;SDS011;21379;50.962;6.960;2023-10-13T06:39:11;13.73;;;8.30;;
35245;SDS011;21379;50.962;6.960;2023-10-13T06:41:51;15.68;;;8.88;;
35245;SDS011;21379;50.962;6.960;2023-10-13T06:44:18;21.73;;;9.25;;
35245;SDS011;21379;50.962;6.960;2023-10-13T06:46:49;15.60;;;8.05;;
35245;SDS011;21379;50.962;6.960;2023-10-13T06:49:19;10.30;;;7.80;;
35245;SDS011;21379;50.962;6.960;2023-10-13T06:51:45;13.57;;;8.73;;
35245;SDS011;21379;50.962;6.960;2023-10-13T06:54:13;14.88;;;8.20;;
35245;SDS011;21379;50.962;6.960;2023-10-13T06:56:45;13.98;;;8.98;;
35245;SDS011;21379;50.962;6.960;2023-10-13T06:59:12;15.70;;;8.15;;
35245;SDS011;21379;50.962;6.960;2023-10-13T07:01:40;16.08;;;9.00;;
35245;SDS011;21379;50.962;6.960;2023-10-13T07:06:40;14.57;;;7.43;;
35245;SDS011;21379;50.962;6.960;2023-10-13T07:09:13;15.05;;;7.88;;
35245;SDS011;21379;50.962;6.960;2023-10-13T07:12:02;17.65;;;8.45;;
35245;SDS011;21379;50.962;6.960;2023-10-13T07:14:31;21.20;;;7.65;;
35245;SDS011;21379;50.962;6.960;2023-10-13T07:17:00;14.25;;;6.93;;
35245;SDS011;21379;50.962;6.960;2023-10-13T07:19:30;14.52;;;8.55;;
35245;SDS011;21379;50.962;6.960;2023-10-13T07:21:58;16.10;;;7.43;;
35245;SDS011;21379;50.962;6.960;2023-10-13T07:24:28;14.05;;;7.50;;
35245;SDS011;21379;50.962;6.960;2023-10-13T07:26:57;14.82;;;7.50;;
35245;SDS011;21379;50.962;6.960;2023-10-13T07:29:30;13.30;;;6.85;;
35245;SDS011;21379;50.962;6.960;2023-10-13T07:31:55;15.50;;;6.95;;
35245;SDS011;21379;50.962;6.960;2023-10-13T07:34:23;16.73;;;7.45;;
35245;SDS011;21379;50.962;6.960;2023-10-13T07:36:52;19.70;;;7.53;;
35245;SDS011;21379;50.962;6.960;2023-10-13T07:39:26;12.65;;;6.78;;
35245;SDS011;21379;50.962;6.960;2023-10-13T07:41:58;14.20;;;6.43;;
35245;SDS011;21379;50.962;6.960;2023-10-13T07:44:31;14.23;;;6.90;;
35245;SDS011;21379;50.962;6.960;2023-10-13T07:46:58;15.13;;;6.03;;
35245;SDS011;21379;50.962;6.960;2023-10-13T07:49:28;15.38;;;6.75;;
35245;SDS011;21379;50.962;6.960;2023-10-13T07:52:02;14.35;;;6.47;;
35245;SDS011;21379;50.962;6.960;2023-10-13T07:54:45;11.93;;;6.10;;
35245;SDS011;21379;50.962;6.960;2023-10-13T07:57:14;14.60;;;6.05;;
35245;SDS011;21379;50.962;6.960;2023-10-13T07:59:41;15.55;;;6.45;;
35245;SDS011;21379;50.962;6.960;2023-10-13T08:02:13;11.45;;;6.03;;
35245;SDS011;21379;50.962;6.960;2023-10-13T08:04:58;18.08;;;5.70;;
35245;SDS011;21379;50.962;6.960;2023-10-13T08:07:26;13.55;;;6.68;;
35245;SDS011;21379;50.962;6.960;2023-10-13T08:12:24;16.52;;;6.43;;
35245;SDS011;21379;50.962;6.960;2023-10-13T08:14:51;14.57;;;5.72;;
35245;SDS011;21379;50.962;6.960;2023-10-13T08:17:37;16.92;;;6.25;;
35245;SDS011;21379;50.962;6.960;2023-10-13T08:20:10;13.82;;;6.03;;
35245;SDS011;21379;50.962;6.960;2023-10-13T08:22:37;11.55;;;5.25;;
35245;SDS011;21379;50.962;6.960;2023-10-13T08:25:06;11.13;;;5.57;;
35245;SDS011;21379;50.962;6.960;2023-10-13T08:30:52;10.55;;;5.35;;
35245;SDS011;21379;50.962;6.960;2023-10-13T08:33:17;11.68;;;5.82;;
35245;SDS011;21379;50.962;6.960;2023-10-13T08:35:49;13.45;;;5.68;;
35245;SDS011;21379;50.962;6.960;2023-10-13T08:38:43;14.13;;;5.75;;
35245;SDS011;21379;50.962;6.960;2023-10-13T08:41:21;12.90;;;5.10;;
35245;SDS011;21379;50.962;6.960;2023-10-13T08:43:55;15.63;;;5.18;;
35245;SDS011;21379;50.962;6.960;2023-10-13T08:46:30;19.33;;;5.32;;
35245;SDS011;21379;50.962;6.960;2023-10-13T08:49:16;13.75;;;5.03;;
35245;SDS011;21379;50.962;6.960;2023-10-13T08:51:44;15.38;;;4.82;;
35245;SDS011;21379;50.962;6.960;2023-10-13T08:54:14;14.43;;;5.05;;
35245;SDS011;21379;50.962;6.960;2023-10-13T08:57:01;14.27;;;5.22;;
35245;SDS011;21379;50.962;6.960;2023-10-13T08:59:48;13.32;;;4.95;;
35245;SDS011;21379;50.962;6.960;2023-10-13T09:02:21;12.52;;;5.18;;
35245;SDS011;21379;50.962;6.960;2023-10-13T09:04:47;9.68;;;4.55;;
35245;SDS011;21379;50.962;6.960;2023-10-13T09:07:24;11.80;;;4.68;;
35245;SDS011;21379;50.962;6.960;2023-10-13T09:09:51;12.43;;;5.50;;
35245;SDS011;21379;50.962;6.960;2023-10-13T09:12:39;10.50;;;4.90;;
35245;SDS011;21379;50.962;6.960;2023-10-13T09:15:06;11.55;;;5.30;;
35245;SDS011;21379;50.962;6.960;2023-10-13T09:17:45;9.10;;;5.43;;
35245;SDS011;21379;50.962;6.960;2023-10-13T09:20:17;13.38;;;5.65;;
35245;SDS011;21379;50.962;6.960;2023-10-13T09:22:58;14.07;;;4.85;;
35245;SDS011;21379;50.962;6.960;2023-10-13T09:25:33;12.93;;;5.13;;
35245;SDS011;21379;50.962;6.960;2023-10-13T09:28:03;10.35;;;4.90;;
35245;SDS011;21379;50.962;6.960;2023-10-13T09:30:43;11.07;;;5.22;;
35245;SDS011;21379;50.962;6.960;2023-10-13T09:33:10;10.43;;;5.22;;
35245;SDS011;21379;50.962;6.960;2023-10-13T09:35:41;11.00;;;4.70;;
35245;SDS011;21379;50.962;6.960;2023-10-13T09:38:14;12.43;;;5.65;;
35245;SDS011;21379;50.962;6.960;2023-10-13T09:40:41;13.10;;;6.45;;
35245;SDS011;21379;50.962;6.960;2023-10-13T09:43:17;13.65;;;5.38;;
35245;SDS011;21379;50.962;6.960;2023-10-13T09:45:45;11.68;;;5.30;;
35245;SDS011;21379;50.962;6.960;2023-10-13T09:48:30;12.80;;;4.90;;
35245;SDS011;21379;50.962;6.960;2023-10-13T09:50:59;11.45;;;5.05;;
35245;SDS011;21379;50.962;6.960;2023-10-13T09:53:26;10.60;;;5.53;;
35245;SDS011;21379;50.962;6.960;2023-10-13T09:55:57;13.13;;;5.65;;
35245;SDS011;21379;50.962;6.960;2023-10-13T09:58:37;11.80;;;5.55;;
35245;SDS011;21379;50.962;6.960;2023-10-13T10:01:12;11.00;;;5.65;;
35245;SDS011;21379;50.962;6.960;2023-10-13T10:03:46;10.30;;;6.53;;
35245;SDS011;21379;50.962;6.960;2023-10-13T10:06:21;13.05;;;5.97;;
35245;SDS011;21379;50.962;6.960;2023-10-13T10:08:53;12.07;;;6.13;;
35245;SDS011;21379;50.962;6.960;2023-10-13T10:11:48;11.73;;;5.28;;
35245;SDS011;21379;50.962;6.960;2023-10-13T10:14:28;12.75;;;5.05;;
35245;SDS011;21379;50.962;6.960;2023-10-13T10:17:04;12.30;;;5.55;;
35245;SDS011;21379;50.962;6.960;2023-10-13T10:19:45;10.80;;;5.90;;
35245;SDS011;21379;50.962;6.960;2023-10-13T10:22:12;14.95;;;5.72;;
35245;SDS011;21379;50.962;6.960;2023-10-13T10:24:42;12.05;;;5.97;;
35245;SDS011;21379;50.962;6.960;2023-10-13T10:27:09;15.38;;;6.35;;
35245;SDS011;21379;50.962;6.960;2023-10-13T10:29:40;14.32;;;6.20;;
35245;SDS011;21379;50.962;6.960;2023-10-13T10:32:32;14.73;;;6.38;;
35245;SDS011;21379;50.962;6.960;2023-10-13T10:35:06;11.77;;;6.22;;
35245;SDS011;21379;50.962;6.960;2023-10-13T10:37:34;12.38;;;6.40;;
35245;SDS011;21379;50.962;6.960;2023-10-13T10:40:06;8.90;;;5.35;;
35245;SDS011;21379;50.962;6.960;2023-10-13T10:42:35;9.65;;;5.30;;
35245;SDS011;21379;50.962;6.960;2023-10-13T10:45:09;13.88;;;6.57;;
35245;SDS011;21379;50.962;6.960;2023-10-13T10:47:37;13.23;;;5.53;;
35245;SDS011;21379;50.962;6.960;2023-10-13T10:50:04;10.27;;;6.18;;
35245;SDS011;21379;50.962;6.960;2023-10-13T10:52:44;15.20;;;6.05;;
35245;SDS011;21379;50.962;6.960;2023-10-13T10:55:12;10.13;;;6.10;;
35245;SDS011;21379;50.962;6.960;2023-10-13T10:57:44;12.73;;;6.25;;
35245;SDS011;21379;50.962;6.960;2023-10-13T11:00:21;11.93;;;5.60;;
35245;SDS011;21379;50.962;6.960;2023-10-13T11:02:54;18.73;;;6.10;;
35245;SDS011;21379;50.962;6.960;2023-10-13T11:05:21;13.30;;;6.20;;
35245;SDS011;21379;50.962;6.960;2023-10-13T11:07:49;10.70;;;6.53;;
35245;SDS011;21379;50.962;6.960;2023-10-13T11:10:16;11.02;;;6.63;;
35245;SDS011;21379;50.962;6.960;2023-10-13T11:12:55;15.80;;;6.13;;
35245;SDS011;21379;50.962;6.960;2023-10-13T11:15:42;12.10;;;6.78;;
35245;SDS011;21379;50.962;6.960;2023-10-13T11:18:10;10.52;;;5.80;;
35245;SDS011;21379;50.962;6.960;2023-10-13T11:20:46;10.80;;;6.30;;
35245;SDS011;21379;50.962;6.960;2023-10-13T11:23:19;11.52;;;5.72;;
35245;SDS011;21379;50.962;6.960;2023-10-13T11:25:56;11.77;;;6.07;;
35245;SDS011;21379;50.962;6.960;2023-10-13T11:28:24;12.43;;;6.15;;
35245;SDS011;21379;50.962;6.960;2023-10-13T11:30:55;9.75;;;5.80;;
35245;SDS011;21379;50.962;6.960;2023-10-13T11:33:24;11.25;;;5.97;;
35245;SDS011;21379;50.962;6.960;2023-10-13T11:35:52;10.40;;;5.85;;
35245;SDS011;21379;50.962;6.960;2023-10-13T11:38:22;10.95;;;5.70;;
35245;SDS011;21379;50.962;6.960;2023-10-13T11:40:52;10.65;;;5.82;;
35245;SDS011;21379;50.962;6.960;2023-10-13T11:43:33;11.88;;;6.10;;
35245;SDS011;21379;50.962;6.960;2023-10-13T11:46:19;10.63;;;5.70;;
35245;SDS011;21379;50.962;6.960;2023-10-13T11:49:01;17.45;;;6.45;;
35245;SDS011;21379;50.962;6.960;2023-10-13T11:51:42;16.52;;;5.80;;
35245;SDS011;21379;50.962;6.960;2023-10-13T11:54:10;11.65;;;5.45;;
35245;SDS011;21379;50.962;6.960;2023-10-13T11:56:36;11.63;;;5.82;;
35245;SDS011;21379;50.962;6.960;2023-10-13T12:01:32;11.73;;;5.57;;
35245;SDS011;21379;50.962;6.960;2023-10-13T12:04:13;15.32;;;5.65;;
35245;SDS011;21379;50.962;6.960;2023-10-13T12:07:06;11.10;;;4.75;;
35245;SDS011;21379;50.962;6.960;2023-10-13T12:09:42;11.45;;;4.95;;
35245;SDS011;21379;50.962;6.960;2023-10-13T12:12:28;13.77;;;5.30;;
35245;SDS011;21379;50.962;6.960;2023-10-13T12:14:56;11.20;;;5.18;;
35245;SDS011;21379;50.962;6.960;2023-10-13T12:17:24;10.57;;;5.30;;
35245;SDS011;21379;50.962;6.960;2023-10-13T12:19:56;11.27;;;5.22;;
35245;SDS011;21379;50.962;6.960;2023-10-13T12:22:24;14.57;;;5.78;;
35245;SDS011;21379;50.962;6.960;2023-10-13T12:25:00;9.00;;;4.80;;
35245;SDS011;21379;50.962;6.960;2023-10-13T12:27:30;11.25;;;5.28;;
35245;SDS011;21379;50.962;6.960;2023-10-13T12:30:11;15.25;;;5.43;;
35245;SDS011;21379;50.962;6.960;2023-10-13T12:32:40;18.73;;;5.55;;
35245;SDS011;21379;50.962;6.960;2023-10-13T12:35:10;9.20;;;5.43;;
35245;SDS011;21379;50.962;6.960;2023-10-13T12:37:52;12.15;;;5.22;;
35245;SDS011;21379;50.962;6.960;2023-10-13T12:40:29;14.45;;;5.45;;
35245;SDS011;21379;50.962;6.960;2023-10-13T12:43:14;10.90;;;4.90;;
35245;SDS011;21379;50.962;6.960;2023-10-13T12:45:58;10.90;;;4.80;;
35245;SDS011;21379;50.962;6.960;2023-10-13T12:48:49;11.82;;;4.93;;
35245;SDS011;21379;50.962;6.960;2023-10-13T12:51:29;11.98;;;4.65;;
35245;SDS011;21379;50.962;6.960;2023-10-13T12:54:16;11.38;;;5.28;;
35245;SDS011;21379;50.962;6.960;2023-10-13T12:56:48;11.50;;;5.13;;
35245;SDS011;21379;50.962;6.960;2023-10-13T12:59:22;14.50;;;5.28;;
35245;SDS011;21379;50.962;6.960;2023-10-13T13:01:52;12.82;;;5.57;;
35245;SDS011;21379;50.962;6.960;2023-10-13T13:04:20;13.70;;;4.97;;
35245;SDS011;21379;50.962;6.960;2023-10-13T13:06:46;14.70;;;5.05;;
35245;SDS011;21379;50.962;6.960;2023-10-13T13:09:14;10.93;;;4.57;;
35245;SDS011;21379;50.962;6.960;2023-10-13T13:11:40;9.40;;;4.70;;
35245;SDS011;21379;50.962;6.960;2023-10-13T13:14:07;15.07;;;4.55;;
35245;SDS011;21379;50.962;6.960;2023-10-13T13:16:34;9.57;;;5.10;;
35245;SDS011;21379;50.962;6.960;2023-10-13T13:19:04;9.30;;;5.05;;
35245;SDS011;21379;50.962;6.960;2023-10-13T13:21:36;15.25;;;5.38;;
35245;SDS011;21379;50.962;6.960;2023-10-13T13:24:04;16.10;;;5.68;;
35245;SDS011;21379;50.962;6.960;2023-10-13T13:26:36;12.80;;;4.70;;
35245;SDS011;21379;50.962;6.960;2023-10-13T13:29:07;11.50;;;5.05;;
35245;SDS011;21379;50.962;6.960;2023-10-13T13:31:35;11.93;;;4.90;;
35245;SDS011;21379;50.962;6.960;2023-10-13T13:34:06;11.05;;;4.68;;
35245;SDS011;21379;50.962;6.960;2023-10-13T13:36:35;13.35;;;4.40;;
35245;SDS011;21379;50.962;6.960;2023-10-13T13:39:03;14.40;;;4.40;;
35245;SDS011;21379;50.962;6.960;2023-10-13T13:41:31;10.20;;;4.40;;
35245;SDS011;21379;50.962;6.960;2023-10-13T13:43:58;10.35;;;4.22;;
35245;SDS011;21379;50.962;6.960;2023-10-13T13:46:38;12.45;;;4.50;;
35245;SDS011;21379;50.962;6.960;2023-10-13T13:49:06;16.13;;;4.60;;
35245;SDS011;21379;50.962;6.960;2023-10-13T13:51:44;18.05;;;5.03;;
35245;SDS011;21379;50.962;6.960;2023-10-13T13:54:17;12.30;;;5.28;;
35245;SDS011;21379;50.962;6.960;2023-10-13T13:56:45;13.88;;;4.80;;
35245;SDS011;21379;50.962;6.960;2023-10-13T13:59:12;10.60;;;4.97;;
35245;SDS011;21379;50.962;6.960;2023-10-13T14:01:41;13.18;;;4.97;;
35245;SDS011;21379;50.962;6.960;2023-10-13T14:04:09;12.48;;;4.78;;
35245;SDS011;21379;50.962;6.960;2023-10-13T14:06:36;11.02;;;5.28;;
35245;SDS011;21379;50.962;6.960;2023-10-13T14:11:40;16.60;;;5.60;;
35245;SDS011;21379;50.962;6.960;2023-10-13T14:14:24;13.52;;;5.22;;
35245;SDS011;21379;50.962;6.960;2023-10-13T14:16:58;13.90;;;5.15;;
35245;SDS011;21379;50.962;6.960;2023-10-13T14:19:32;15.52;;;4.40;;
35245;SDS011;21379;50.962;6.960;2023-10-13T14:21:59;14.55;;;4.80;;
35245;SDS011;21379;50.962;6.960;2023-10-13T14:24:33;13.45;;;5.82;;
35245;SDS011;21379;50.962;6.960;2023-10-13T14:27:01;12.38;;;4.80;;
35245;SDS011;21379;50.962;6.960;2023-10-13T14:29:34;16.38;;;5.68;;
35245;SDS011;21379;50.962;6.960;2023-10-13T14:32:06;16.17;;;5.38;;
35245;SDS011;21379;50.962;6.960;2023-10-13T14:34:37;13.55;;;6.25;;
35245;SDS011;21379;50.962;6.960;2023-10-13T14:37:08;16.70;;;4.70;;
35245;SDS011;21379;50.962;6.960;2023-10-13T14:39:39;12.60;;;5.25;;
35245;SDS011;21379;50.962;6.960;2023-10-13T14:42:06;19.67;;;5.68;;
35245;SDS011;21379;50.962;6.960;2023-10-13T14:44:32;12.30;;;4.45;;
35245;SDS011;21379;50.962;6.960;2023-10-13T14:46:59;13.57;;;4.93;;
35245;SDS011;21379;50.962;6.960;2023-10-13T14:49:26;13.45;;;4.53;;
35245;SDS011;21379;50.962;6.960;2023-10-13T14:51:53;11.82;;;4.93;;
35245;SDS011;21379;50.962;6.960;2023-10-13T14:54:21;12.05;;;4.85;;
35245;SDS011;21379;50.962;6.960;2023-10-13T14:56:59;22.27;;;5.40;;
35245;SDS011;21379;50.962;6.960;2023-10-13T14:59:27;10.23;;;4.80;;
35245;SDS011;21379;50.962;6.960;2023-10-13T15:01:58;10.30;;;4.45;;
35245;SDS011;21379;50.962;6.960;2023-10-13T15:04:27;12.50;;;4.43;;
35245;SDS011;21379;50.962;6.960;2023-10-13T15:06:58;11.48;;;4.60;;
35245;SDS011;21379;50.962;6.960;2023-10-13T15:09:27;13.70;;;4.70;;
35245;SDS011;21379;50.962;6.960;2023-10-13T15:11:54;13.95;;;4.80;;
35245;SDS011;21379;50.962;6.960;2023-10-13T15:14:22;18.50;;;4.88;;
35245;SDS011;21379;50.962;6.960;2023-10-13T15:16:49;12.35;;;4.65;;
35245;SDS011;21379;50.962;6.960;2023-10-13T15:19:17;16.60;;;4.15;;
35245;SDS011;21379;50.962;6.960;2023-10-13T15:21:44;10.20;;;4.72;;
35245;SDS011;21379;50.962;6.960;2023-10-13T15:24:14;11.82;;;4.20;;
35245;SDS011;21379;50.962;6.960;2023-10-13T15:26:42;10.93;;;4.25;;